x

South Santa Rosa Is. Ca (46069) Wave Buoy

12:50 - Wed 29th Jun 2016 All times are PDT. -7 hours from GMT.

  • Sig Wave height 5.9ft
  • Swell Direction
  • Peak Period 8s
  • Average Period 6s
  • Wind
    22mph, 25mph gusts
  • Sea Temp 63°f
  • Aire Temp 57°f
  • Sea Pressure 1012.6mb
  • South Santa Rosa Is. Ca
  • South Santa Rosa Is. Ca

More Historic Weather Station data

Upgrade to MSW Pro to gain access to the past 30 days of data for over 8000 Wavebouys and Weather Stations around the globe.

Join Pro

Comparision Forecast

View Surf forecast
   
mié 06/29 12:50 6ft 8s 6s 22 25 mph 1012.6mb 63f 57f
mar 06/28 11:50 6ft 10s 6s 20 25 mph 1012.6mb 63f 57f
10:50 5ft 9s 6s 20 22 mph 1012.9mb 63f 57f
9:50 5.5ft 9s 7s 18 20 mph 1012.9mb 64f 57f
8:50 5.5ft 8s 7s 18 20 mph 1012.8mb 64f 58f
7:50 5ft 9s 7s 13 18 mph 1012.9mb 63f 57f
6:50 5.5ft 8s 7s 11 16 mph 1012.9mb 64f 59f
5:50 5ft 8s 7s 11
mph
1013.2mb 64f 60f
4:50 5ft 8s 7s 11 13 mph 1013.4mb 64f 60f
3:50 5ft 7s 7s 9 11 mph 1014mb 64f 60f
2:50 5ft 15s 7s 7 9 mph 1014.9mb 63f 60f
1:50 4.5ft 9s 7s 4 7 mph 1015.6mb 62f 60f
12:50 5ft 15s 8s 7 11 mph 1015.7mb 63f 59f
11:50 4.5ft 15s 8s 9 13 mph 1015.2mb 63f 59f
10:50 4ft 15s 7s 9 11 mph 1015mb 63f 58f
9:50 4.5ft 15s 8s 9 13 mph 1015mb 63f 58f
8:50 5.5ft 9s 8s 11 13 mph 1014.7mb 63f 58f
7:50 5.5ft 9s 8s 9 11 mph 1014.2mb 63f 59f
6:50 6ft 8s 8s 4 7 mph 1013.8mb 63f 62f
5:50 5.5ft 8s 8s 4 7 mph 1013.5mb 63f 61f
4:50 6ft 8s 8s 4 7 mph 1013.2mb 64f 61f
3:50 5.5ft 9s 8s 4 7 mph 1012.9mb 64f 61f
2:50 5ft 8s 7s 2
mph
1013mb 64f 61f
1:50 5ft 15s 7s 4
mph
1012.8mb 63f 61f
12:50 6ft 8s 7s 7 9 mph 1012.7mb 64f 61f
lun 06/27 11:50 6ft 8s 7s 9 11 mph 1013mb 64f 60f
10:50 5ft 8s 7s 9 11 mph 1013.2mb 64f 60f
9:50 5ft 15s 7s 11 13 mph 1012.9mb 64f 60f
8:50 5.5ft 15s 8s 11 13 mph 1013mb 64f 60f
7:50 5.5ft 8s 8s 11 13 mph 1012.9mb 63f 60f
6:50 6ft 8s 8s 9 11 mph 1013.2mb 62f 61f
5:50 6ft 8s 8s 9 11 mph 1013mb 62f 62f
4:50 6ft 8s 8s 7 11 mph 1013.2mb 63f 60f
3:50 5.5ft 15s 8s 9 11 mph 1013.5mb 62f 60f
2:50 5.5ft 16s 7s 11 13 mph 1013.6mb 62f 60f
1:50 6ft 16s 7s 7 9 mph 1014.1mb 63f 61f
12:50 5ft 8s 7s 4
mph
1014.4mb 62f 60f
11:50 6ft 8s 7s 4 7 mph 1014.2mb 62f 60f
10:50 6ft 15s 8s 7
mph
1013.8mb 62f 60f
9:50 6ft 15s 8s 7 9 mph 1014.1mb 61f 59f
8:50 5.5ft 8s 7s 7 9 mph 1014mb 62f 58f
7:50 6ft 9s 8s 7 9 mph 1013.8mb 62f 59f
6:50 7ft 8s 8s 7 9 mph 1013.2mb 63f 60f
5:50 6ft 9s 8s 9 11 mph 1012.9mb 63f 60f
4:50 6.5ft 9s 8s 9 11 mph 1011.9mb 62f 61f
3:50 7ft 9s 8s 9 11 mph 1011.9mb 62f 61f
2:50 7ft 9s 8s 9 13 mph 1012mb 61f 62f
1:50 6.5ft 16s 7s 7 11 mph 1011.9mb 61f 61f
12:50 6.5ft 8s 7s 9 11 mph 1011.7mb 61f 59f
dom 06/26 11:50 7ft 16s 7s 13 16 mph 1012.1mb 60f 59f
10:50 7ft 8s 7s 16 18 mph 1012.1mb 60f 59f
9:50 7ft 17s 7s 18 22 mph 1012.3mb 61f 59f
8:50 7ft 17s 7s 20 22 mph 1011.7mb 62f 60f
7:50 7ft 16s 7s 20 25 mph 1011.3mb 62f 60f
6:50 6.5ft 17s 7s 22 27 mph 1011.4mb 61f 59f
5:50 7ft 17s 7s 20 22 mph 1011.6mb 61f 59f
4:50 7ft 16s 7s 22 25 mph 1011.6mb 61f 59f
3:50 7.5ft 17s 8s 20 25 mph 1012mb 62f 59f
2:50 7ft 16s 8s 13 16 mph 1012.8mb 62f 60f
1:50 7ft 17s 8s 13 16 mph 1013mb 62f 59f
12:50 6.5ft 17s 8s 13 16 mph 1013.2mb 61f 59f
11:50 6ft 17s 7s 11 13 mph 1013.1mb 61f 59f
10:50 6.5ft 17s 8s 9
mph
1012.9mb 61f 58f
9:50 6.5ft 8s 7s 7 9 mph 1013mb 60f 58f
8:50 6ft 17s 8s 11
mph
1012.9mb 61f 58f
7:50 6.5ft 17s 8s 7 11 mph 1012.5mb 62f 58f
6:50 7ft 17s 9s 9 11 mph 1011.8mb 62f 59f
5:50 7.5ft 9s 8s 11 13 mph 1011.6mb 62f 59f
4:50 7ft 17s 8s 11 13 mph 1011.3mb 62f 59f
3:50 7ft 15s 7s 11 13 mph 1011mb 60f 59f
2:50 8ft 17s 7s 16 18 mph 1011mb 60f 58f
12:50 8.5ft 19s 7s 22 27 mph 1011.3mb 61f 59f
sáb 06/25 11:50 9ft 7s 7s 22 27 mph 1011.4mb 61f 59f
10:50 9.5ft 17s 7s 25 29 mph 1010.9mb 61f 59f
9:50 9ft 17s 7s 25 29 mph 1010.4mb 61f 60f
8:50 10ft 8s 7s 25 31 mph 1009.9mb 62f 60f
7:50 8ft 17s 7s 27 34 mph 1009.8mb 60f 59f
6:50 8.5ft 17s 7s 27 31 mph 1009.9mb 60f 59f
5:50 8ft 16s 7s 25 31 mph 1010mb 60f 59f
4:50 8ft 17s 7s 22 27 mph 1010.5mb 60f 59f
3:50 8ft 19s 7s 25 27 mph 1010.8mb 60f 58f
2:50 7ft 16s 7s 20 25 mph 1011.4mb 60f 59f
1:50 7ft 19s 7s 20 22 mph 1011.6mb 60f 58f
12:50 7ft 16s 7s 18 20 mph 1012mb 59f 58f
11:50 7.5ft 19s 7s 16 20 mph 1012.2mb 60f 58f
10:50 8ft 8s 8s 18 22 mph 1012.2mb 59f 57f
9:50 8.5ft 17s 8s 18 22 mph 1012.2mb 60f 57f